Latest Coastal Weather Observations for Cape Naturaliste

IDW60701

Issued at 5:35 pm WST Friday 18 April 2014 (issued every 10 minutes, with the page automatically refreshed every 10 minutes)

About coastal observations | Map of coastal stations | Coastal observations for WA | Marine services | Other Formats
Station Details ID: 009519 Name: CAPE NATURALISTE Lat: -33.54 Lon: 115.02 Height: 109.0 m
Data from the previous 72 hours. | See also: Recent months at Cape Naturaliste
Date/Time
WST
Temp

°C
Wind Pressure Rain
since 9am
mm
Weather Cloud Vis
km
Sea
Height
m
Swell
Dir
 
Speed
knots
Gust
knots
hPa Trend Height
m
Period
s
Dir
18/05:30pm 18.7 SSW 12 16 1019.6 - 0.0 - - - - - - -
18/05:00pm 19.2 SSW 11 15 1019.6 - 0.0 - - - - - - -
18/04:30pm 20.3 SSW 11 15 1019.7 - 0.0 - - - - - - -
18/04:00pm 20.9 SW 10 13 1019.7 - 0.0 - - - - - - -
18/03:30pm 21.3 SW 10 14 1019.8 - 0.0 - - - - - - -
18/03:00pm 22.3 SW 10 13 1019.7 - 0.0 - - - - - - -
18/02:30pm 22.1 WSW 9 12 1020.0 - 0.0 - - - - - - -
18/02:00pm 22.2 WSW 7 10 1020.2 - 0.0 - - - - - - -
18/01:30pm 22.0 NNW 5 7 1020.4 - 0.0 - - - - - - -
18/01:00pm 22.5 NNE 5 8 1020.9 - 0.0 - - - - - - -
18/12:30pm 21.8 NNE 4 7 1021.4 - 0.0 - - - - - - -
18/12:00pm 20.3 ENE 7 9 1021.3 - 0.0 - - - - - - -
18/11:30am 20.4 ENE 9 11 1021.8 - 0.0 - - - - - - -
18/11:00am 20.5 ENE 9 12 1022.2 - 0.0 - - - - - - -
18/10:30am 20.1 ENE 10 13 1022.5 - 0.0 - - - - - - -
18/10:00am 19.6 ENE 11 14 1022.5 - 0.0 - - - - - - -
18/09:30am 19.1 ENE 11 16 1022.9 - 0.0 - - - - - - -
18/09:00am 18.1 E 11 14 1022.8 - 0.2 - - - - - - -
18/08:30am 17.0 E 10 12 1023.2 - 0.2 - - - - - - -
18/08:00am 15.5 ESE 9 12 1023.2 - 0.2 - - - - - - -
18/07:30am 13.6 ESE 10 11 1023.0 - 0.2 - - - - - - -
18/07:00am 12.7 ESE 10 12 1022.9 - 0.2 - - - - - - -
18/06:30am 12.4 ESE 10 12 1022.8 - 0.2 - - - - - - -
18/06:00am 12.5 SE 10 12 1022.7 - 0.2 - - - - - - -
18/05:30am 12.4 ESE 10 11 1023.1 - 0.2 - - - - - - -
18/05:00am 12.5 ESE 10 12 1023.1 - 0.2 - - - - - - -
18/04:30am 13.0 ESE 10 13 1023.1 - 0.2 - - - - - - -
18/04:00am 13.2 ESE 11 15 1023.1 - 0.2 - - - - - - -
18/03:30am 12.8 ESE 11 13 1023.1 - 0.2 - - - - - - -
18/03:00am 12.7 ESE 10 12 1022.9 - 0.2 - - - - - - -
18/02:30am 12.6 ESE 10 11 1023.3 - 0.2 - - - - - - -
18/02:00am 12.8 SE 10 12 1023.4 - 0.2 - - - - - - -
18/01:30am 13.1 SE 11 13 1023.3 - 0.2 - - - - - - -
18/01:00am 13.5 SE 11 14 1023.5 - 0.2 - - - - - - -
18/12:30am 13.7 SE 11 13 1023.4 - 0.2 - - - - - - -
18/12:00am 14.0 SE 11 14 1023.2 - 0.2 - - - - - - -
 
Date/Time
WST
Temp

°C
Wind Pressure Rain
since 9am
mm
Weather Cloud Vis
km
Sea
Height
m
Swell
Dir
 
Speed
knots
Gust
knots
hPa Trend Height
m
Period
s
Dir
17/11:30pm 14.4 SSE 11 14 1023.6 - 0.2 - - - - - - -
17/11:00pm 14.7 SSE 11 15 1023.8 - 0.2 - - - - - - -
17/10:30pm 14.8 SSE 11 15 1023.9 - 0.2 - - - - - - -
17/10:00pm 14.9 SSE 11 15 1024.0 - 0.2 - - - - - - -
17/09:30pm 15.2 SSE 11 15 1023.9 - 0.2 - - - - - - -
17/09:00pm 15.6 SSE 13 18 1023.4 - 0.2 - - - - - - -
17/08:30pm 15.6 SSE 11 14 1023.7 - 0.2 - - - - - - -
17/08:00pm 16.0 S 11 13 1023.6 - 0.2 - - - - - - -
17/07:30pm 16.5 SSE 11 13 1023.3 - 0.2 - - - - - - -
17/07:00pm 16.8 S 12 17 1022.9 - 0.2 - - - - - - -
17/06:30pm 17.3 S 13 17 1022.6 - 0.2 - - - - - - -
17/06:00pm 17.9 S 14 20 1022.0 - 0.2 - - - - - - -
17/05:30pm 18.7 SSW 14 19 1022.1 - 0.2 - - - - - - -
17/05:00pm 19.7 S 17 22 1021.8 - 0.2 - - - - - - -
17/04:30pm 20.3 SSW 16 22 1021.8 - 0.2 - - - - - - -
17/04:00pm 20.8 SSW 16 21 1021.7 - 0.2 - - - - - - -
17/03:30pm 21.3 SSW 16 22 1021.7 - 0.2 - - - - - - -
17/03:00pm 21.5 SSW 17 22 1021.3 - 0.2 - - - - - - -
17/02:30pm 21.7 SSW 17 25 1021.4 - 0.2 - - - - - - -
17/02:00pm 22.0 SSW 18 25 1021.5 - 0.2 - - - - - - -
17/01:30pm 22.2 SSW 15 20 1021.6 - 0.2 - - - - - - -
17/01:00pm 22.5 SSW 16 21 1021.8 - 0.2 - - - - - - -
17/12:30pm 22.4 SSW 14 18 1022.0 - 0.0 - - - - - - -
17/12:00pm 22.5 SSW 13 17 1021.9 - 0.0 - - - - - - -
17/11:30am 22.1 SSW 11 16 1022.3 - 0.0 - - - - - - -
17/11:00am 22.1 SSW 11 16 1022.4 - 0.0 - - - - - - -
17/10:30am 21.5 SSW 11 15 1022.4 - 0.0 - - - - - - -
17/10:00am 19.6 S 9 12 1022.4 - 0.0 - - - - - - -
17/09:30am 18.7 SSW 5 7 1022.3 - 0.0 - - - - - - -
17/09:00am 17.8 W 7 10 1021.9 - 0.4 - - - - - - -
17/08:30am 17.5 SSW 7 9 1022.0 - 0.4 - - - - - - -
17/08:00am 16.8 SW 13 16 1021.7 - 0.4 - - - - - - -
17/07:30am 16.9 W 10 13 1021.3 - 0.0 - - - - - - -
17/07:00am 17.6 WSW 15 18 1021.0 - 0.0 - - - - - - -
17/06:30am 17.8 SSW 8 12 1020.6 - 0.0 - - - - - - -
17/06:00am 18.3 SW 14 19 1020.1 - 0.0 - - - - - - -
17/05:30am 18.7 WSW 10 14 1020.3 - 0.0 - - - - - - -
17/05:00am 18.7 SW 11 16 1020.0 - 0.0 - - - - - - -
17/04:30am 18.5 WSW 11 16 1019.8 - 0.0 - - - - - - -
17/04:00am 18.4 WSW 15 18 1019.8 - 0.0 - - - - - - -
17/03:30am 18.6 WSW 13 16 1019.8 - 0.0 - - - - - - -
17/03:00am 18.6 SW 12 16 1019.5 - 0.0 - - - - - - -
17/02:30am 18.6 SW 13 17 1019.9 - 0.0 - - - - - - -
17/02:00am 18.5 WSW 11 15 1020.1 - 0.0 - - - - - - -
17/01:30am 18.6 SW 11 16 1020.0 - 0.0 - - - - - - -
17/01:00am 18.3 W 9 12 1020.0 - 0.0 - - - - - - -
17/12:30am 18.1 WSW 8 10 1020.1 - 0.0 - - - - - - -
17/12:00am 18.1 W 11 13 1019.9 - 0.0 - - - - - - -
 
Date/Time
WST
Temp

°C
Wind Pressure Rain
since 9am
mm
Weather Cloud Vis
km
Sea
Height
m
Swell
Dir
 
Speed
knots
Gust
knots
hPa Trend Height
m
Period
s
Dir
16/11:30pm 18.1 SW 9 11 1020.4 - 0.0 - - - - - - -
16/11:00pm 18.3 WSW 12 16 1020.7 - 0.0 - - - - - - -
16/10:30pm 18.1 WSW 10 13 1020.7 - 0.0 - - - - - - -
16/10:00pm 18.2 SW 8 11 1020.8 - 0.0 - - - - - - -
16/09:30pm 18.3 WSW 11 14 1020.8 - 0.0 - - - - - - -
16/09:00pm 18.1 SW 8 11 1020.5 - 0.0 - - - - - - -
16/08:30pm 18.1 W 9 13 1020.7 - 0.0 - - - - - - -
16/08:00pm 18.2 WSW 10 13 1020.6 - 0.0 - - - - - - -
16/07:30pm 18.1 WSW 8 10 1020.6 - 0.0 - - - - - - -
16/07:00pm 18.1 WSW 9 15 1020.5 - 0.0 - - - - - - -
16/06:30pm 18.0 WSW 7 11 1020.5 - 0.0 - - - - - - -
16/06:00pm 18.2 SW 9 13 1020.2 - 0.0 - - - - - - -
16/05:30pm 18.4 WSW 9 12 1020.6 - 0.0 - - - - - - -
16/05:00pm 18.8 WSW 5 6 1020.5 - 0.0 - - - - - - -
16/04:30pm 19.1 WNW 5 6 1020.6 - 0.0 - - - - - - -
16/04:00pm 19.2 W 4 7 1020.8 - 0.0 - - - - - - -
16/03:30pm 19.6 W 4 6 1021.0 - 0.0 - - - - - - -
16/03:00pm 19.5 WSW 6 9 1020.8 - 0.0 - - - - - - -
16/02:30pm 19.6 W 6 8 1021.4 - 0.0 - - - - - - -
16/02:00pm 20.6 WNW 5 8 1021.3 - 0.0 - - - - - - -
16/01:30pm 20.4 N 9 11 1021.6 - 0.0 - - - - - - -
16/01:00pm 19.8 N 7 9 1022.1 - 0.0 - - - - - - -
16/12:30pm 19.4 NNE 5 7 1022.5 - 0.0 - - - - - - -
16/12:00pm 19.5 NNE 6 7 1022.7 - 0.0 - - - - - - -
16/11:30am 19.7 NNE 6 7 1023.3 - 0.0 - - - - - - -
16/11:00am 19.1 ENE 6 8 1023.4 - 0.0 - - - - - - -
16/10:30am 18.7 NE 5 7 1023.6 - 0.0 - - - - - - -
16/10:00am 18.6 E 6 8 1023.7 - 0.0 - - - - - - -
16/09:30am 18.0 E 5 6 1023.8 - 0.0 - - - - - - -
16/09:00am 17.5 ESE 4 6 1023.5 - 3.8 - - - - - - -
16/08:30am 16.9 SE 5 7 1023.7 - 3.8 - - - - - - -
16/08:00am 16.3 SE 6 7 1023.4 - 3.8 - - - - - - -
16/07:30am 15.9 SE 6 7 1023.2 - 3.8 - - - - - - -
16/07:00am 15.6 ESE 6 7 1022.9 - 3.8 - - - - - - -
16/06:30am 15.5 SE 6 7 1022.8 - 3.8 - - - - - - -
16/06:00am 15.4 SE 6 6 1022.4 - 3.8 - - - - - - -
16/05:30am 15.3 SE 6 7 1022.6 - 3.8 - - - - - - -
16/05:00am 15.2 SE 6 7 1022.5 - 3.8 - - - - - - -
16/04:30am 15.1 SSE 6 7 1022.5 - 3.8 - - - - - - -
16/04:00am 15.2 SSE 7 9 1022.5 - 3.8 - - - - - - -
16/03:30am 14.8 SSE 8 9 1022.5 - 3.8 - - - - - - -
16/03:00am 14.9 S 8 10 1022.2 - 3.8 - - - - - - -
16/02:30am 14.8 SSE 8 10 1022.7 - 3.8 - - - - - - -
16/02:00am 14.6 SSE 9 11 1022.8 - 3.8 - - - - - - -
16/01:30am 14.4 S 9 10 1023.1 - 3.8 - - - - - - -
16/01:00am 14.7 SSE 7 8 1023.1 - 3.8 - - - - - - -
16/12:30am 14.1 SSE 8 9 1023.1 - 3.8 - - - - - - -
16/12:00am 13.6 SSE 9 11 1022.9 - 3.8 - - - - - - -
 
Date/Time
WST
Temp

°C
Wind Pressure Rain
since 9am
mm
Weather Cloud Vis
km
Sea
Height
m
Swell
Dir
 
Speed
knots
Gust
knots
hPa Trend Height
m
Period
s
Dir
15/11:30pm 13.9 SSE 10 12 1023.2 - 3.8 - - - - - - -
15/11:00pm 14.2 S 11 13 1023.4 - 3.8 - - - - - - -
15/10:30pm 14.7 S 11 14 1023.4 - 3.8 - - - - - - -
15/10:00pm 14.6 S 11 14 1023.5 - 3.8 - - - - - - -
15/09:30pm 14.9 S 11 13 1023.5 - 3.8 - - - - - - -
15/09:00pm 15.8 S 11 15 1023.1 - 3.8 - - - - - - -
15/08:30pm 16.3 S 10 13 1022.9 - 3.8 - - - - - - -
15/08:00pm 16.5 S 12 15 1022.6 - 3.8 - - - - - - -
15/07:30pm 16.5 S 14 17 1022.2 - 3.8 - - - - - - -
15/07:00pm 16.6 S 14 17 1021.8 - 3.8 - - - - - - -
15/06:30pm 17.2 S 15 20 1021.6 - 3.4 - - - - - - -
15/06:00pm 17.7 SSW 18 24 1021.0 - 3.4 - - - - - - -
15/05:48pm 18.0 SSW 15 25 1021.2 - 3.4 - - - - - - -

Other Formats:

Comma delimited format used in spreadsheet applications
http://www.bom.gov.au/fwo/IDW60701/IDW60701.94600.axf

JavaScript Object Notation format (JSON) in row-major order
http://www.bom.gov.au/fwo/IDW60701/IDW60701.94600.json